Time;durP1;ratioP1;P1;durP2;ratioP2;P2;SDS_P1;SDS_P2;PMS_P1;PMS_P2;Temp;Humidity;BMP_temperature;BMP_pressure;BME280_temperature;BME280_humidity;BME280_pressure;Samples;Min_cycle;Max_cycle;Signal;HPM_P1;HPM_P2
2020/12/03 08:02:49;;;;;;;13.52;3.47;;;;;;;;;;5057911;28;20391;-76
2020/12/03 08:05:28;;;;;;;15.80;4.75;;;;;;;;;;5066277;28;20024;-76
2020/12/03 08:07:54;;;;;;;9.35;4.32;;;;;;;;;;5068906;28;20067;-76
2020/12/03 08:10:39;;;;;;;12.18;3.78;;;;;;;;;;5069584;28;20036;-77
2020/12/03 08:13:24;;;;;;;16.23;3.38;;;;;;;;;;5069317;28;20054;-76
2020/12/03 08:16:04;;;;;;;18.90;3.97;;;;;;;;;;5068644;28;20048;-77
2020/12/03 08:18:46;;;;;;;17.83;4.30;;;;;;;;;;5068112;28;20388;-76
2020/12/03 08:21:13;;;;;;;9.48;3.55;;;;;;;;;;5068458;28;20033;-76
2020/12/03 08:23:38;;;;;;;14.30;3.50;;;;;;;;;;5067772;28;20021;-75
2020/12/03 08:26:04;;;;;;;10.63;3.33;;;;;;;;;;5069216;28;20043;-76
2020/12/03 08:28:31;;;;;;;11.23;3.38;;;;;;;;;;5069456;28;20140;-77
2020/12/03 08:30:56;;;;;;;12.77;3.67;;;;;;;;;;5069540;28;20031;-75
2020/12/03 08:33:34;;;;;;;12.65;4.28;;;;;;;;;;5070302;28;20040;-76
2020/12/03 08:36:01;;;;;;;13.63;3.40;;;;;;;;;;5074276;28;20025;-76
2020/12/03 08:38:33;;;;;;;12.43;3.70;;;;;;;;;;5068105;28;20115;-77
2020/12/03 08:41:05;;;;;;;12.02;4.07;;;;;;;;;;5068826;28;20034;-76
2020/12/03 08:43:33;;;;;;;10.25;3.90;;;;;;;;;;5068007;28;20078;-76
2020/12/03 08:48:28;;;;;;;6.88;2.63;;;;;;;;;;5068635;28;20037;-76
2020/12/03 08:50:55;;;;;;;7.85;2.45;;;;;;;;;;5068814;28;20017;-76
2020/12/03 08:53:20;;;;;;;6.28;2.78;;;;;;;;;;5067975;28;20381;-76
2020/12/03 08:55:45;;;;;;;7.93;2.40;;;;;;;;;;5068625;28;20025;-76
2020/12/03 08:58:12;;;;;;;7.75;2.67;;;;;;;;;;5068365;28;20435;-76
2020/12/03 09:00:41;;;;;;;3.90;1.90;;;;;;;;;;5068062;28;20036;-76
2020/12/03 09:03:08;;;;;;;15.25;2.80;;;;;;;;;;5067903;28;20139;-76
2020/12/03 09:05:33;;;;;;;9.77;2.50;;;;;;;;;;5068436;28;20039;-76
2020/12/03 09:07:59;;;;;;;6.60;2.35;;;;;;;;;;5068428;28;20469;-76
2020/12/03 09:10:24;;;;;;;10.15;2.10;;;;;;;;;;5067636;28;21616;-76
2020/12/03 09:12:51;;;;;;;10.98;3.80;;;;;;;;;;5061246;28;20016;-76
2020/12/03 09:15:17;;;;;;;13.88;2.83;;;;;;;;;;5053977;28;20037;-76
2020/12/03 09:17:43;;;;;;;11.70;2.83;;;;;;;;;;5054999;28;20033;-76
2020/12/03 09:20:10;;;;;;;11.35;2.28;;;;;;;;;;5055007;28;20021;-76
2020/12/03 09:22:36;;;;;;;10.75;2.08;;;;;;;;;;5055248;28;20128;-76
2020/12/03 09:25:03;;;;;;;7.40;2.17;;;;;;;;;;5054585;28;20115;-76
2020/12/03 09:27:29;;;;;;;4.82;1.75;;;;;;;;;;5054455;28;20025;-76
2020/12/03 09:29:54;;;;;;;7.30;2.13;;;;;;;;;;5054432;28;20583;-77
2020/12/03 09:32:21;;;;;;;9.95;2.03;;;;;;;;;;5054712;28;20518;-76
2020/12/03 09:34:48;;;;;;;6.60;2.05;;;;;;;;;;5054952;28;20032;-77
2020/12/03 09:37:14;;;;;;;6.43;1.90;;;;;;;;;;5054791;28;20041;-76
2020/12/03 09:39:39;;;;;;;7.00;1.98;;;;;;;;;;5055310;28;20365;-76
2020/12/03 09:42:10;;;;;;;5.82;1.65;;;;;;;;;;5055033;28;20100;-76
2020/12/03 09:44:36;;;;;;;7.78;2.15;;;;;;;;;;5047444;28;20033;-76
2020/12/03 09:47:09;;;;;;;8.60;2.50;;;;;;;;;;5052242;28;20632;-76
2020/12/03 09:49:34;;;;;;;6.40;1.92;;;;;;;;;;5050097;28;20025;-75
2020/12/03 09:52:03;;;;;;;7.05;2.25;;;;;;;;;;5050368;28;20041;-76
2020/12/03 09:54:28;;;;;;;3.10;1.48;;;;;;;;;;5051713;28;20144;-76
2020/12/03 09:56:54;;;;;;;8.48;2.00;;;;;;;;;;5052313;28;20463;-76
2020/12/03 09:59:20;;;;;;;3.65;1.75;;;;;;;;;;5051774;28;20415;-75
2020/12/03 10:02:04;;;;;;;3.72;1.77;;;;;;;;;;5051839;28;20061;-75
2020/12/03 10:04:48;;;;;;;7.25;1.88;;;;;;;;;;5048702;28;20013;-76
2020/12/03 10:07:23;;;;;;;6.07;2.05;;;;;;;;;;5047945;28;20156;-76
2020/12/03 10:10:03;;;;;;;8.05;1.73;;;;;;;;;;5050264;28;20428;-76
2020/12/03 10:12:48;;;;;;;4.85;2.20;;;;;;;;;;5050439;28;20063;-77
2020/12/03 10:15:52;;;;;;;8.32;2.28;;;;;;;;;;5048312;28;20028;-76
2020/12/03 10:18:24;;;;;;;6.18;1.70;;;;;;;;;;5047636;28;20040;-76
2020/12/03 10:20:50;;;;;;;5.70;1.80;;;;;;;;;;5042663;28;20108;-76
2020/12/03 10:23:30;;;;;;;4.50;2.10;;;;;;;;;;5039337;28;20127;-76
2020/12/03 10:26:08;;;;;;;7.22;1.70;;;;;;;;;;5049419;28;20031;-78
2020/12/03 10:28:41;;;;;;;11.82;2.63;;;;;;;;;;5047795;28;20033;-76
2020/12/03 10:31:06;;;;;;;6.45;1.90;;;;;;;;;;5049877;28;20447;-76
2020/12/03 10:33:35;;;;;;;7.05;1.95;;;;;;;;;;5050487;28;20037;-76
2020/12/03 10:36:06;;;;;;;3.45;1.90;;;;;;;;;;5048786;28;20013;-76
2020/12/03 10:38:37;;;;;;;5.45;1.80;;;;;;;;;;5047588;28;20032;-76
2020/12/03 10:41:04;;;;;;;7.75;2.47;;;;;;;;;;5049717;28;20045;-76
2020/12/03 10:43:31;;;;;;;3.25;1.65;;;;;;;;;;5049458;28;20009;-77
2020/12/03 10:46:00;;;;;;;4.55;2.33;;;;;;;;;;5049230;28;20021;-76
2020/12/03 10:48:31;;;;;;;7.63;2.08;;;;;;;;;;5049073;28;20128;-76
2020/12/03 10:50:58;;;;;;;8.93;3.60;;;;;;;;;;5047870;28;20044;-76
2020/12/03 10:53:27;;;;;;;6.78;3.20;;;;;;;;;;5049004;28;20041;-76
2020/12/03 10:55:58;;;;;;;10.23;3.10;;;;;;;;;;5049251;28;20028;-76
2020/12/03 10:58:51;;;;;;;12.82;8.35;;;;;;;;;;5049347;28;20068;-76
2020/12/03 11:01:34;;;;;;;8.65;3.25;;;;;;;;;;5044412;28;20052;-76
2020/12/03 11:04:04;;;;;;;8.57;2.40;;;;;;;;;;5047554;28;20424;-76
2020/12/03 11:06:30;;;;;;;7.95;3.20;;;;;;;;;;5049336;28;20120;-76
2020/12/03 11:08:55;;;;;;;8.82;4.80;;;;;;;;;;5049186;28;20095;-77
2020/12/03 11:11:21;;;;;;;10.98;2.85;;;;;;;;;;5049914;28;20049;-75
2020/12/03 11:13:46;;;;;;;4.75;1.63;;;;;;;;;;5048516;28;20035;-76
2020/12/03 11:16:12;;;;;;;7.63;1.92;;;;;;;;;;5048164;28;20067;-78
2020/12/03 11:18:43;;;;;;;5.20;1.40;;;;;;;;;;5048886;28;20099;-76
2020/12/03 11:21:14;;;;;;;2.80;1.45;;;;;;;;;;5044089;28;20497;-76
2020/12/03 11:23:48;;;;;;;5.55;2.00;;;;;;;;;;5047058;28;20029;-76
2020/12/03 11:26:14;;;;;;;5.82;1.58;;;;;;;;;;5074288;28;20025;-76
2020/12/03 11:28:39;;;;;;;3.72;1.83;;;;;;;;;;5048478;28;20473;-75
2020/12/03 11:31:08;;;;;;;4.15;1.50;;;;;;;;;;5049251;28;20358;-78
2020/12/03 11:33:37;;;;;;;2.40;1.40;;;;;;;;;;5048860;28;20368;-76
2020/12/03 11:36:06;;;;;;;5.72;1.30;;;;;;;;;;5049104;28;20389;-77
2020/12/03 11:38:32;;;;;;;3.15;1.35;;;;;;;;;;5048158;28;20033;-76
2020/12/03 11:40:59;;;;;;;3.15;1.55;;;;;;;;;;5049790;28;20040;-76
2020/12/03 11:48:57;;;;;;;6.00;2.03;;;;;;;;;;5048885;28;20083;-76
2020/12/03 11:51:40;;;;;;;9.00;1.92;;;;;;;;;;5049054;28;20064;-77
2020/12/03 11:54:07;;;;;;;2.30;1.63;;;;;;;;;;5047871;28;20071;-78
2020/12/03 11:56:33;;;;;;;4.13;1.60;;;;;;;;;;5048270;28;20029;-76
2020/12/03 11:59:10;;;;;;;3.72;1.77;;;;;;;;;;5048880;28;20035;-77
2020/12/03 12:01:35;;;;;;;6.63;1.83;;;;;;;;;;5048829;28;20087;-76
2020/12/03 12:04:01;;;;;;;4.68;1.83;;;;;;;;;;5048909;28;20064;-76
2020/12/03 12:06:34;;;;;;;4.97;1.60;;;;;;;;;;5048780;28;20021;-76
2020/12/03 12:09:17;;;;;;;2.63;1.60;;;;;;;;;;5049106;28;20029;-76
2020/12/03 12:11:46;;;;;;;3.47;1.88;;;;;;;;;;5048235;28;20439;-76
2020/12/03 12:14:11;;;;;;;3.60;2.10;;;;;;;;;;5048350;28;20033;-76
2020/12/03 12:16:36;;;;;;;4.38;1.90;;;;;;;;;;5049429;28;20099;-76
2020/12/03 12:19:02;;;;;;;3.10;1.80;;;;;;;;;;5048531;28;20021;-76
2020/12/03 12:21:30;;;;;;;4.30;2.15;;;;;;;;;;5049512;28;20028;-76
2020/12/03 12:23:55;;;;;;;3.20;2.00;;;;;;;;;;5049373;28;20120;-75
2020/12/03 12:26:20;;;;;;;3.58;2.17;;;;;;;;;;5049030;28;20107;-76
2020/12/03 12:28:45;;;;;;;3.72;1.90;;;;;;;;;;5047811;28;20032;-76
2020/12/03 12:31:11;;;;;;;3.75;2.50;;;;;;;;;;5048555;28;20195;-76
2020/12/03 12:33:36;;;;;;;6.28;3.25;;;;;;;;;;5048248;28;20017;-79
2020/12/03 12:36:01;;;;;;;6.57;3.80;;;;;;;;;;5049113;28;20066;-76
2020/12/03 12:38:27;;;;;;;5.45;4.03;;;;;;;;;;5047930;28;20592;-76
2020/12/03 12:40:52;;;;;;;7.75;5.32;;;;;;;;;;5048598;28;20063;-76
2020/12/03 12:43:17;;;;;;;5.78;3.38;;;;;;;;;;5047399;28;20028;-76
2020/12/03 12:45:43;;;;;;;11.65;5.32;;;;;;;;;;5047471;28;20477;-76
2020/12/03 12:48:08;;;;;;;4.03;2.90;;;;;;;;;;5050164;28;20021;-76
2020/12/03 12:50:33;;;;;;;3.38;2.58;;;;;;;;;;5052941;28;20049;-76
2020/12/03 12:52:58;;;;;;;6.22;2.60;;;;;;;;;;5049458;28;20043;-76
2020/12/03 12:55:24;;;;;;;5.70;3.25;;;;;;;;;;5052030;28;20032;-76
2020/12/03 12:57:49;;;;;;;7.07;4.25;;;;;;;;;;5051999;28;20381;-76
2020/12/03 13:00:15;;;;;;;8.23;4.22;;;;;;;;;;5052124;28;20060;-77
2020/12/03 13:02:40;;;;;;;7.10;3.72;;;;;;;;;;5050590;28;20041;-77
2020/12/03 13:05:05;;;;;;;9.60;4.70;;;;;;;;;;5051969;28;20032;-76
2020/12/03 13:07:31;;;;;;;5.68;2.63;;;;;;;;;;5051415;28;20504;-76
2020/12/03 13:09:56;;;;;;;4.38;2.40;;;;;;;;;;5051122;28;20045;-75
2020/12/03 13:12:21;;;;;;;3.50;2.08;;;;;;;;;;5051410;28;20106;-76
2020/12/03 13:14:46;;;;;;;4.97;2.38;;;;;;;;;;5051614;28;20063;-75
2020/12/03 13:17:12;;;;;;;2.95;1.90;;;;;;;;;;5051544;28;20053;-79
2020/12/03 13:19:37;;;;;;;4.97;2.00;;;;;;;;;;5051433;28;20029;-76
2020/12/03 13:22:02;;;;;;;3.90;2.25;;;;;;;;;;5049934;28;20060;-76
2020/12/03 13:24:28;;;;;;;5.40;3.15;;;;;;;;;;5050526;28;20025;-76
2020/12/03 13:26:53;;;;;;;8.68;4.50;;;;;;;;;;5051494;28;20029;-76
2020/12/03 13:29:22;;;;;;;6.72;3.80;;;;;;;;;;5050839;28;20028;-75
2020/12/03 13:31:47;;;;;;;8.57;2.50;;;;;;;;;;5042126;28;20082;-76
2020/12/03 13:34:13;;;;;;;8.73;2.85;;;;;;;;;;5049702;28;20488;-75
2020/12/03 13:36:38;;;;;;;6.20;2.92;;;;;;;;;;5050901;28;20041;-75
2020/12/03 13:39:04;;;;;;;5.57;3.22;;;;;;;;;;5051035;28;20028;-76
2020/12/03 13:41:30;;;;;;;5.13;2.20;;;;;;;;;;5051494;28;20032;-75
2020/12/03 13:43:55;;;;;;;2.90;1.70;;;;;;;;;;5051001;28;20052;-75
2020/12/03 13:46:20;;;;;;;6.47;2.42;;;;;;;;;;5050137;28;20039;-77
2020/12/03 13:48:46;;;;;;;5.85;3.20;;;;;;;;;;5050930;28;20118;-75
2020/12/03 13:51:13;;;;;;;7.80;4.13;;;;;;;;;;5051055;28;20045;-75
2020/12/03 13:53:38;;;;;;;8.85;3.47;;;;;;;;;;5050785;28;20017;-75
2020/12/03 13:56:04;;;;;;;9.23;3.75;;;;;;;;;;5049711;28;20044;-77
2020/12/03 13:58:29;;;;;;;4.05;2.80;;;;;;;;;;5049232;28;20041;-76
2020/12/03 14:00:54;;;;;;;4.43;1.77;;;;;;;;;;5049991;28;20053;-76
2020/12/03 14:03:20;;;;;;;8.65;2.58;;;;;;;;;;5049919;28;20025;-76
2020/12/03 14:05:45;;;;;;;11.93;5.38;;;;;;;;;;5049253;28;20033;-75
2020/12/03 14:08:10;;;;;;;7.00;3.45;;;;;;;;;;5049377;28;20104;-75
2020/12/03 14:10:36;;;;;;;6.90;3.38;;;;;;;;;;5050946;28;20423;-76
2020/12/03 14:13:01;;;;;;;6.95;3.83;;;;;;;;;;5050344;28;20124;-76
2020/12/03 14:15:27;;;;;;;5.55;2.38;;;;;;;;;;5050089;28;20051;-76
2020/12/03 14:17:52;;;;;;;7.20;3.38;;;;;;;;;;5050152;28;20108;-76
2020/12/03 14:20:19;;;;;;;7.53;3.47;;;;;;;;;;5050684;28;20045;-76
2020/12/03 14:22:44;;;;;;;12.73;3.67;;;;;;;;;;5049883;28;20078;-76
2020/12/03 14:25:09;;;;;;;4.97;2.10;;;;;;;;;;5049970;28;20025;-76
2020/12/03 14:27:35;;;;;;;6.75;1.90;;;;;;;;;;5050189;28;20362;-77
2020/12/03 14:30:00;;;;;;;5.07;2.30;;;;;;;;;;5050302;28;20099;-78
2020/12/03 14:32:26;;;;;;;6.70;3.42;;;;;;;;;;5049724;28;20127;-76
2020/12/03 14:34:51;;;;;;;5.80;3.17;;;;;;;;;;5050630;28;20048;-76
2020/12/03 14:37:17;;;;;;;12.65;5.78;;;;;;;;;;5049829;28;20483;-76
2020/12/03 14:39:42;;;;;;;11.63;4.03;;;;;;;;;;5049942;28;20104;-76
2020/12/03 14:42:07;;;;;;;5.88;3.10;;;;;;;;;;5049823;28;20036;-76
2020/12/03 14:44:33;;;;;;;10.70;5.90;;;;;;;;;;5050378;28;20021;-76
2020/12/03 14:46:58;;;;;;;6.40;3.70;;;;;;;;;;5047928;28;20032;-77
2020/12/03 14:49:23;;;;;;;6.03;3.92;;;;;;;;;;5049675;28;20041;-76
2020/12/03 14:51:53;;;;;;;7.07;3.95;;;;;;;;;;5048490;28;20110;-75
2020/12/03 14:54:19;;;;;;;5.95;2.72;;;;;;;;;;5049283;28;21017;-76
2020/12/03 14:56:44;;;;;;;9.38;3.95;;;;;;;;;;5043776;28;20107;-76
2020/12/03 14:59:11;;;;;;;10.63;4.40;;;;;;;;;;5048965;28;20024;-76
2020/12/03 15:01:37;;;;;;;6.68;3.50;;;;;;;;;;5048379;28;20493;-76
2020/12/03 15:04:02;;;;;;;10.45;3.97;;;;;;;;;;5047838;28;20123;-76
2020/12/03 15:06:27;;;;;;;6.53;3.25;;;;;;;;;;5048563;28;20032;-76
2020/12/03 15:08:56;;;;;;;8.55;3.83;;;;;;;;;;5048659;28;20376;-76
2020/12/03 15:11:24;;;;;;;7.05;4.47;;;;;;;;;;5048490;28;20055;-76
2020/12/03 15:13:50;;;;;;;9.77;4.43;;;;;;;;;;5048970;28;20025;-76
2020/12/03 15:16:15;;;;;;;8.40;4.47;;;;;;;;;;5048852;28;20094;-76
2020/12/03 15:18:40;;;;;;;7.85;4.22;;;;;;;;;;5049863;28;20120;-76
2020/12/03 15:21:05;;;;;;;6.50;3.58;;;;;;;;;;5049637;28;20021;-76
2020/12/03 15:23:31;;;;;;;10.45;4.18;;;;;;;;;;5048817;28;20024;-75
2020/12/03 15:25:56;;;;;;;8.70;3.83;;;;;;;;;;5049546;28;20389;-75
2020/12/03 15:28:21;;;;;;;12.95;4.43;;;;;;;;;;5048371;28;20052;-76
2020/12/03 15:30:47;;;;;;;9.95;4.43;;;;;;;;;;5049597;28;20385;-75
2020/12/03 15:33:12;;;;;;;8.32;4.63;;;;;;;;;;5049979;28;20431;-76
2020/12/03 15:35:37;;;;;;;10.07;4.72;;;;;;;;;;5049150;28;20021;-76
2020/12/03 15:38:03;;;;;;;11.57;4.63;;;;;;;;;;5048924;28;20129;-75
2020/12/03 15:40:28;;;;;;;12.98;5.47;;;;;;;;;;5048700;28;20397;-76
2020/12/03 15:42:54;;;;;;;11.65;5.80;;;;;;;;;;5048912;28;20009;-76
2020/12/03 15:45:19;;;;;;;13.45;6.00;;;;;;;;;;5048787;28;20468;-76
2020/12/03 15:47:44;;;;;;;15.32;7.65;;;;;;;;;;5049029;28;20045;-76
2020/12/03 15:50:10;;;;;;;31.95;14.95;;;;;;;;;;5049167;28;20060;-75
2020/12/03 15:52:35;;;;;;;56.42;25.50;;;;;;;;;;5048301;28;20041;-76
2020/12/03 15:55:00;;;;;;;44.28;20.88;;;;;;;;;;5048746;28;20076;-75
2020/12/03 15:57:26;;;;;;;46.45;24.30;;;;;;;;;;5047202;28;20035;-75
2020/12/03 15:59:52;;;;;;;68.55;37.22;;;;;;;;;;5049368;28;20029;-76
2020/12/03 16:02:17;;;;;;;87.35;40.00;;;;;;;;;;5048261;28;20436;-75
2020/12/03 16:04:47;;;;;;;69.68;33.55;;;;;;;;;;5048563;28;20021;-75
2020/12/03 16:07:16;;;;;;;52.58;27.02;;;;;;;;;;5048882;28;20534;-75
2020/12/03 16:09:44;;;;;;;51.88;28.33;;;;;;;;;;5048726;28;20087;-76
2020/12/03 16:12:09;;;;;;;75.20;35.22;;;;;;;;;;5040831;28;20032;-76
2020/12/03 16:14:34;;;;;;;81.40;37.67;;;;;;;;;;5048758;28;20029;-75
2020/12/03 16:17:00;;;;;;;33.40;17.58;;;;;;;;;;5048870;28;20041;-76
2020/12/03 16:19:25;;;;;;;29.17;15.00;;;;;;;;;;5048768;28;20021;-75
2020/12/03 16:21:50;;;;;;;19.80;10.55;;;;;;;;;;5048448;28;20033;-76
2020/12/03 16:24:16;;;;;;;18.92;9.10;;;;;;;;;;5052291;28;20037;-76
2020/12/03 16:26:41;;;;;;;23.48;12.85;;;;;;;;;;5052879;28;20377;-75
2020/12/03 16:29:09;;;;;;;22.23;11.98;;;;;;;;;;5051301;28;20052;-75
2020/12/03 16:31:39;;;;;;;21.42;10.52;;;;;;;;;;5052201;28;20044;-75
2020/12/03 16:34:04;;;;;;;16.98;7.97;;;;;;;;;;5051865;28;20017;-75
2020/12/03 16:36:31;;;;;;;9.88;6.13;;;;;;;;;;5053057;28;20040;-76
2020/12/03 16:38:56;;;;;;;11.65;6.07;;;;;;;;;;5051547;28;20124;-75
2020/12/03 16:41:23;;;;;;;18.45;7.60;;;;;;;;;;5051628;28;20171;-75
2020/12/03 16:43:49;;;;;;;16.80;8.80;;;;;;;;;;5050793;28;20033;-76
2020/12/03 16:46:17;;;;;;;14.65;8.13;;;;;;;;;;5051265;28;20111;-75
2020/12/03 16:48:42;;;;;;;14.02;8.00;;;;;;;;;;5052008;28;20037;-76
2020/12/03 16:51:07;;;;;;;9.18;5.90;;;;;;;;;;5052500;28;20037;-79
2020/12/03 16:53:32;;;;;;;8.38;5.55;;;;;;;;;;5050957;28;20106;-76
2020/12/03 16:55:58;;;;;;;7.60;4.78;;;;;;;;;;5052146;28;20021;-76
2020/12/03 16:58:23;;;;;;;10.93;5.10;;;;;;;;;;5051325;28;20366;-76
2020/12/03 17:00:48;;;;;;;7.35;5.13;;;;;;;;;;5052099;28;20047;-76
2020/12/03 17:03:14;;;;;;;7.95;5.13;;;;;;;;;;5052300;28;20013;-76
2020/12/03 17:05:39;;;;;;;5.93;4.18;;;;;;;;;;5049790;28;20606;-76
2020/12/03 17:08:04;;;;;;;6.22;4.10;;;;;;;;;;5051506;28;20037;-76
2020/12/03 17:10:29;;;;;;;4.72;3.15;;;;;;;;;;5051616;28;20017;-75
2020/12/03 17:12:55;;;;;;;5.13;3.40;;;;;;;;;;5051935;28;20056;-76
2020/12/03 17:15:20;;;;;;;4.22;2.92;;;;;;;;;;5049498;28;20033;-76
2020/12/03 17:17:45;;;;;;;4.95;3.17;;;;;;;;;;5051800;28;20058;-76
2020/12/03 17:20:11;;;;;;;5.68;3.35;;;;;;;;;;5049908;28;20029;-77
2020/12/03 17:22:36;;;;;;;5.15;3.25;;;;;;;;;;5050206;28;20037;-76
2020/12/03 17:25:02;;;;;;;6.45;3.20;;;;;;;;;;5051829;28;20048;-75
2020/12/03 17:27:28;;;;;;;5.00;3.28;;;;;;;;;;5051602;28;20484;-75
2020/12/03 17:29:53;;;;;;;7.22;3.85;;;;;;;;;;5050144;28;20029;-75
2020/12/03 17:32:19;;;;;;;5.55;3.10;;;;;;;;;;5051556;28;20079;-76
2020/12/03 17:34:44;;;;;;;6.22;3.60;;;;;;;;;;5050087;28;20036;-75
2020/12/03 17:37:09;;;;;;;5.13;3.65;;;;;;;;;;5051014;28;20540;-76
2020/12/03 17:39:34;;;;;;;8.07;4.47;;;;;;;;;;5050892;28;20027;-75
2020/12/03 17:42:04;;;;;;;6.03;3.80;;;;;;;;;;5049681;28;20029;-75
2020/12/03 17:44:30;;;;;;;5.82;3.42;;;;;;;;;;5051071;28;20033;-76
2020/12/03 17:46:55;;;;;;;6.13;3.90;;;;;;;;;;5049558;28;20381;-76
2020/12/03 17:49:21;;;;;;;5.03;3.67;;;;;;;;;;5050502;28;20496;-76
2020/12/03 17:51:47;;;;;;;5.35;3.58;;;;;;;;;;5051686;28;20040;-78
2020/12/03 17:54:13;;;;;;;7.85;4.10;;;;;;;;;;5050570;28;20094;-75
2020/12/03 17:57:11;;;;;;;6.50;4.20;;;;;;;;;;5050537;28;20021;-76
2020/12/03 17:59:36;;;;;;;6.97;4.28;;;;;;;;;;5037104;28;20942;-76
2020/12/03 18:02:02;;;;;;;6.22;4.20;;;;;;;;;;5050891;28;20049;-76
2020/12/03 18:04:28;;;;;;;9.45;3.85;;;;;;;;;;5051294;28;20040;-76
2020/12/03 18:06:53;;;;;;;7.13;3.90;;;;;;;;;;5050509;28;20024;-78
2020/12/03 18:09:18;;;;;;;6.43;3.42;;;;;;;;;;5051240;28;20135;-75
2020/12/03 18:11:44;;;;;;;8.63;3.17;;;;;;;;;;5050557;28;20052;-75
2020/12/03 18:14:09;;;;;;;5.25;2.70;;;;;;;;;;5050337;28;20017;-77
2020/12/03 18:16:35;;;;;;;4.30;2.80;;;;;;;;;;5051081;28;20029;-76
2020/12/03 18:19:00;;;;;;;4.07;2.55;;;;;;;;;;5050488;28;20473;-76
2020/12/03 18:21:26;;;;;;;5.72;3.05;;;;;;;;;;5050852;28;20017;-75
2020/12/03 18:23:52;;;;;;;4.38;2.85;;;;;;;;;;5049678;28;20043;-76
2020/12/03 18:26:21;;;;;;;5.15;3.03;;;;;;;;;;5050573;28;20119;-75
2020/12/03 18:28:46;;;;;;;5.03;3.28;;;;;;;;;;5048733;28;20484;-77
2020/12/03 18:31:11;;;;;;;6.75;3.13;;;;;;;;;;5049029;28;20068;-75
2020/12/03 18:33:37;;;;;;;6.10;4.00;;;;;;;;;;5050116;28;20551;-75
2020/12/03 18:36:02;;;;;;;5.47;3.38;;;;;;;;;;5050046;28;20100;-75
2020/12/03 18:38:27;;;;;;;5.20;3.47;;;;;;;;;;5050916;28;20033;-75
2020/12/03 18:40:53;;;;;;;5.38;3.22;;;;;;;;;;5050072;28;20052;-77
2020/12/03 18:43:18;;;;;;;5.38;3.88;;;;;;;;;;5050367;28;20039;-75
2020/12/03 18:45:43;;;;;;;7.65;4.22;;;;;;;;;;5049622;28;20443;-76
2020/12/03 18:48:08;;;;;;;9.23;4.25;;;;;;;;;;5049680;28;20082;-75
2020/12/03 18:50:35;;;;;;;6.25;4.20;;;;;;;;;;5050696;28;20017;-76
2020/12/03 18:53:00;;;;;;;6.10;4.85;;;;;;;;;;5050269;28;20029;-75
2020/12/03 18:55:26;;;;;;;6.82;4.07;;;;;;;;;;5050288;28;20094;-75
2020/12/03 18:57:51;;;;;;;6.63;4.55;;;;;;;;;;5050988;28;20088;-75
2020/12/03 19:00:16;;;;;;;8.05;4.75;;;;;;;;;;5050089;28;20105;-76
2020/12/03 19:02:42;;;;;;;7.95;4.50;;;;;;;;;;5052450;28;20049;-76
2020/12/03 19:05:07;;;;;;;7.60;5.05;;;;;;;;;;5052699;28;20114;-76
2020/12/03 19:07:32;;;;;;;8.00;5.20;;;;;;;;;;5052960;28;20603;-77
2020/12/03 19:09:58;;;;;;;8.45;4.93;;;;;;;;;;5052462;28;20037;-75
2020/12/03 19:12:23;;;;;;;9.27;4.60;;;;;;;;;;5052947;28;20107;-76
2020/12/03 19:14:48;;;;;;;7.95;4.72;;;;;;;;;;5052964;28;20056;-75
2020/12/03 19:17:14;;;;;;;7.32;4.50;;;;;;;;;;5052409;28;20044;-76
2020/12/03 19:19:39;;;;;;;9.18;5.20;;;;;;;;;;5052647;28;20021;-75
2020/12/03 19:22:05;;;;;;;7.47;4.65;;;;;;;;;;5052651;28;20380;-75
2020/12/03 19:24:30;;;;;;;9.30;6.03;;;;;;;;;;5052263;28;20033;-75
2020/12/03 19:26:55;;;;;;;8.93;5.25;;;;;;;;;;5053163;28;20017;-76
2020/12/03 19:29:21;;;;;;;8.65;5.63;;;;;;;;;;5052876;28;20053;-75
2020/12/03 19:31:47;;;;;;;8.75;5.53;;;;;;;;;;5051086;28;20075;-76
2020/12/03 19:34:12;;;;;;;9.13;5.93;;;;;;;;;;5051612;28;20044;-76
2020/12/03 19:36:37;;;;;;;7.93;4.55;;;;;;;;;;5052058;28;20039;-76
2020/12/03 19:39:03;;;;;;;8.88;5.53;;;;;;;;;;5052294;28;20032;-76
2020/12/03 19:41:28;;;;;;;7.82;4.57;;;;;;;;;;5052081;28;20053;-76
2020/12/03 19:43:53;;;;;;;7.40;4.72;;;;;;;;;;5052092;28;20111;-76
2020/12/03 19:46:18;;;;;;;8.38;4.95;;;;;;;;;;5051844;28;20480;-76
2020/12/03 19:48:44;;;;;;;6.60;4.55;;;;;;;;;;5051751;28;20024;-76
2020/12/03 19:51:11;;;;;;;7.70;5.13;;;;;;;;;;5051770;28;20572;-76
2020/12/03 19:53:36;;;;;;;8.57;4.97;;;;;;;;;;5052432;28;20080;-76
2020/12/03 19:56:02;;;;;;;12.70;6.20;;;;;;;;;;5051461;28;20409;-75
2020/12/03 19:58:27;;;;;;;8.73;5.10;;;;;;;;;;5052161;28;20060;-76
2020/12/03 20:00:53;;;;;;;7.97;4.93;;;;;;;;;;5051678;28;20060;-76
2020/12/03 20:03:18;;;;;;;8.07;5.30;;;;;;;;;;5052265;28;20596;-75
2020/12/03 20:05:43;;;;;;;7.70;5.35;;;;;;;;;;5051975;28;20028;-76
2020/12/03 20:08:08;;;;;;;8.57;5.47;;;;;;;;;;5051522;28;20052;-76
2020/12/03 20:10:34;;;;;;;7.78;5.20;;;;;;;;;;5048587;28;20108;-76
2020/12/03 20:12:59;;;;;;;9.00;5.15;;;;;;;;;;5050871;28;20028;-75
2020/12/03 20:15:24;;;;;;;7.70;5.28;;;;;;;;;;5051797;28;20389;-77
2020/12/03 20:17:53;;;;;;;7.38;5.03;;;;;;;;;;5053434;28;20132;-76
2020/12/03 20:20:18;;;;;;;6.30;4.38;;;;;;;;;;5067753;28;20021;-75
2020/12/03 20:22:43;;;;;;;8.07;5.07;;;;;;;;;;5051462;28;20064;-76
2020/12/03 20:25:11;;;;;;;6.50;4.40;;;;;;;;;;5051432;28;20016;-75
2020/12/03 20:27:37;;;;;;;8.57;5.03;;;;;;;;;;5057197;28;20438;-76
2020/12/03 20:30:03;;;;;;;7.07;4.95;;;;;;;;;;5053695;28;20055;-75
2020/12/03 20:32:28;;;;;;;8.60;5.72;;;;;;;;;;5053356;28;20086;-76
2020/12/03 20:34:53;;;;;;;7.65;5.25;;;;;;;;;;5053315;28;20056;-76
2020/12/03 20:37:18;;;;;;;7.72;4.97;;;;;;;;;;5051926;28;20389;-76
2020/12/03 20:39:44;;;;;;;8.00;5.20;;;;;;;;;;5051848;28;20021;-75
2020/12/03 20:42:09;;;;;;;8.00;4.90;;;;;;;;;;5051656;28;20025;-75
2020/12/03 20:44:34;;;;;;;8.45;5.90;;;;;;;;;;5052213;28;20041;-76
2020/12/03 20:47:00;;;;;;;7.10;5.15;;;;;;;;;;5051375;28;20021;-75
2020/12/03 20:49:25;;;;;;;6.88;4.32;;;;;;;;;;5052004;28;20037;-75
2020/12/03 20:51:50;;;;;;;9.88;5.40;;;;;;;;;;5051736;28;20044;-76
2020/12/03 20:54:16;;;;;;;6.38;4.88;;;;;;;;;;5051613;28;20017;-75
2020/12/03 20:56:44;;;;;;;8.15;5.45;;;;;;;;;;5051898;28;20024;-75
2020/12/03 20:59:16;;;;;;;7.22;5.30;;;;;;;;;;5051654;28;20032;-76
2020/12/03 21:01:42;;;;;;;6.80;5.28;;;;;;;;;;5051100;28;20037;-75
2020/12/03 21:04:08;;;;;;;8.07;5.32;;;;;;;;;;5050822;28;20036;-75
2020/12/03 21:06:34;;;;;;;6.93;5.00;;;;;;;;;;5051557;28;20036;-76
2020/12/03 21:08:59;;;;;;;12.13;5.70;;;;;;;;;;5053129;28;20748;-76
2020/12/03 21:11:26;;;;;;;7.40;5.25;;;;;;;;;;5054772;28;20049;-76
2020/12/03 21:13:54;;;;;;;8.07;5.88;;;;;;;;;;5054800;28;20633;-76
2020/12/03 21:16:19;;;;;;;8.68;6.10;;;;;;;;;;5055209;28;20150;-75
2020/12/03 21:18:44;;;;;;;7.70;5.60;;;;;;;;;;5054719;28;20516;-75
2020/12/03 21:21:11;;;;;;;8.18;5.95;;;;;;;;;;5054489;28;20039;-75
2020/12/03 21:23:36;;;;;;;10.57;6.00;;;;;;;;;;5054765;28;20021;-76
2020/12/03 21:26:02;;;;;;;8.05;5.57;;;;;;;;;;5054902;28;20108;-76
2020/12/03 21:28:27;;;;;;;9.13;5.65;;;;;;;;;;5045829;28;20041;-76
2020/12/03 21:30:52;;;;;;;8.75;6.05;;;;;;;;;;5053528;28;20024;-76
2020/12/03 21:33:18;;;;;;;9.25;5.82;;;;;;;;;;5053054;28;20029;-75
2020/12/03 21:35:43;;;;;;;8.77;5.70;;;;;;;;;;5059014;28;20755;-76
2020/12/03 21:38:08;;;;;;;8.60;5.65;;;;;;;;;;5058743;28;20075;-76
2020/12/03 21:40:36;;;;;;;8.55;5.90;;;;;;;;;;5053767;28;20029;-76
2020/12/03 21:43:01;;;;;;;7.95;5.57;;;;;;;;;;5053390;28;20033;-75
2020/12/03 21:45:27;;;;;;;8.38;5.93;;;;;;;;;;5050849;28;20419;-75
2020/12/03 21:47:52;;;;;;;9.77;6.05;;;;;;;;;;5053986;28;20413;-76
2020/12/03 21:50:18;;;;;;;9.45;6.10;;;;;;;;;;5053762;28;20029;-75
2020/12/03 21:52:43;;;;;;;9.48;5.57;;;;;;;;;;5051976;28;20040;-76
2020/12/03 21:55:08;;;;;;;8.02;5.22;;;;;;;;;;5052621;28;20028;-76
2020/12/03 21:57:34;;;;;;;8.88;6.20;;;;;;;;;;5042732;28;20098;-76
2020/12/03 21:59:59;;;;;;;12.25;6.47;;;;;;;;;;5047211;28;20075;-76
2020/12/03 22:02:25;;;;;;;10.10;6.38;;;;;;;;;;5050199;28;20055;-76
2020/12/03 22:04:50;;;;;;;11.10;6.72;;;;;;;;;;5064603;28;20504;-75
2020/12/03 22:07:15;;;;;;;10.55;6.50;;;;;;;;;;5051351;28;20013;-76
2020/12/03 22:09:41;;;;;;;11.32;6.97;;;;;;;;;;5049706;28;20552;-76
2020/12/03 22:12:06;;;;;;;9.25;5.28;;;;;;;;;;5065424;28;20052;-76
2020/12/03 22:14:31;;;;;;;10.15;6.38;;;;;;;;;;5051264;28;20024;-76
2020/12/03 22:16:57;;;;;;;11.88;6.03;;;;;;;;;;5050960;28;20055;-76
2020/12/03 22:19:22;;;;;;;11.27;6.07;;;;;;;;;;5048527;28;20037;-76
2020/12/03 22:21:47;;;;;;;10.10;6.20;;;;;;;;;;5048481;28;20028;-76
2020/12/03 22:24:13;;;;;;;8.50;5.70;;;;;;;;;;5048668;28;20029;-75
2020/12/03 22:26:38;;;;;;;8.02;5.30;;;;;;;;;;5048703;28;20071;-76
2020/12/03 22:29:04;;;;;;;6.28;4.03;;;;;;;;;;5049383;28;20059;-76
2020/12/03 22:31:29;;;;;;;7.43;5.05;;;;;;;;;;5049794;28;20076;-76
2020/12/03 22:33:54;;;;;;;8.65;4.63;;;;;;;;;;5048537;28;20036;-76
2020/12/03 22:36:21;;;;;;;10.95;6.05;;;;;;;;;;5049278;28;20020;-76
2020/12/03 22:38:46;;;;;;;8.15;5.40;;;;;;;;;;5049961;28;20492;-77
2020/12/03 22:41:12;;;;;;;6.32;4.32;;;;;;;;;;5041363;28;20033;-78
2020/12/03 22:43:37;;;;;;;6.60;4.10;;;;;;;;;;5055212;28;20123;-76
2020/12/03 22:46:02;;;;;;;6.57;4.50;;;;;;;;;;5047079;28;20037;-77